Time;durP1;ratioP1;P1;durP2;ratioP2;P2;SDS_P1;SDS_P2;PMS_P1;PMS_P2;Temp;Humidity;BMP_temperature;BMP_pressure;BME280_temperature;BME280_humidity;BME280_pressure;Samples;Min_cycle;Max_cycle;Signal;HPM_P1;HPM_P2
2023/03/03 00:00:28;;;;;;;;;;;18.70;99.90;;;;;;4591114;19;20023;-34
2023/03/03 00:02:19;;;;;;;20.58;12.40;;;18.70;99.90;;;;;;4590243;19;20325;-34
2023/03/03 00:03:52;;;;;;;16.13;10.95;;;18.70;99.90;;;;;;4590026;19;20025;-38
2023/03/03 00:05:23;;;;;;;;;;;18.70;99.90;;;;;;4590072;19;20094;-38
2023/03/03 00:06:55;;;;;;;18.35;11.43;;;18.70;99.90;;;;;;4589646;19;20264;-33
2023/03/03 00:08:26;;;;;;;18.70;12.07;;;18.70;99.90;;;;;;4590021;19;20014;-39
2023/03/03 00:09:58;;;;;;;16.83;11.25;;;18.70;99.90;;;;;;4590013;19;20010;-34
2023/03/03 00:11:30;;;;;;;;;;;18.70;99.90;;;;;;4590756;19;20010;-32
2023/03/03 00:13:01;;;;;;;17.13;11.95;;;18.70;99.90;;;;;;4590792;19;19914;-42
2023/03/03 00:14:32;;;;;;;17.23;11.52;;;18.70;99.90;;;;;;4588058;19;20025;-39
2023/03/03 00:16:16;;;;;;;15.18;11.45;;;18.70;99.90;;;;;;4589643;19;20006;-34
2023/03/03 00:17:48;;;;;;;16.77;11.43;;;18.80;99.90;;;;;;4590142;19;20017;-34
2023/03/03 00:19:19;;;;;;;15.85;11.40;;;18.70;99.90;;;;;;4589193;19;20042;-37
2023/03/03 00:20:54;;;;;;;15.80;10.50;;;18.80;99.90;;;;;;4589430;19;20017;-36
2023/03/03 00:22:32;;;;;;;15.15;10.65;;;18.80;99.90;;;;;;4589833;19;20006;-34
2023/03/03 00:24:39;;;;;;;15.48;10.82;;;18.80;99.90;;;;;;4589752;19;20011;-33
2023/03/03 00:26:33;;;;;;;15.27;10.38;;;18.70;99.90;;;;;;4589673;19;20472;-42
2023/03/03 00:28:22;;;;;;;17.27;10.95;;;18.80;99.90;;;;;;4588767;19;20147;-34
2023/03/03 00:29:53;;;;;;;16.77;10.88;;;18.80;99.90;;;;;;4589422;19;20066;-35
2023/03/03 00:31:35;;;;;;;15.77;10.40;;;18.80;99.90;;;;;;4589603;19;20074;-34
2023/03/03 00:33:32;;;;;;;15.18;11.05;;;18.80;99.90;;;;;;4588148;19;20022;-34
2023/03/03 00:35:25;;;;;;;16.45;11.40;;;18.80;99.90;;;;;;4589135;19;20014;-34
2023/03/03 00:36:57;;;;;;;18.35;12.70;;;18.80;99.90;;;;;;4589226;19;20011;-42
2023/03/03 00:38:30;;;;;;;18.42;12.18;;;18.70;99.90;;;;;;4589823;19;20543;-36
2023/03/03 00:40:25;;;;;;;17.70;12.77;;;18.70;99.90;;;;;;4586012;19;20047;-34
2023/03/03 00:41:57;;;;;;;15.25;11.23;;;18.70;99.90;;;;;;4587763;19;20074;-34
2023/03/03 00:43:34;;;;;;;15.35;10.77;;;18.70;99.90;;;;;;4587298;19;20038;-34
2023/03/03 00:45:47;;;;;;;13.13;9.93;;;18.70;99.90;;;;;;4587206;19;20015;-34
2023/03/03 00:47:27;;;;;;;14.43;9.38;;;18.70;99.90;;;;;;4586844;19;20014;-36
2023/03/03 00:49:00;;;;;;;14.68;10.63;;;18.70;99.90;;;;;;4587454;19;20015;-37
2023/03/03 00:50:33;;;;;;;14.35;10.38;;;18.70;99.90;;;;;;4587360;19;20018;-42
2023/03/03 00:52:13;;;;;;;16.35;11.10;;;18.80;99.90;;;;;;4586895;19;20006;-42
2023/03/03 00:53:44;;;;;;;16.20;10.98;;;18.70;99.90;;;;;;4586548;19;20370;-37
2023/03/03 00:55:17;;;;;;;13.45;10.13;;;18.80;99.90;;;;;;4587079;19;20031;-34
2023/03/03 00:56:50;;;;;;;13.57;9.52;;;18.80;99.90;;;;;;4587025;19;20042;-34
2023/03/03 00:58:21;;;;;;;12.73;10.18;;;18.80;99.90;;;;;;4586746;19;20007;-38
2023/03/03 00:59:54;;;;;;;17.08;11.02;;;18.80;99.90;;;;;;4586924;19;20011;-34
2023/03/03 01:01:26;;;;;;;14.20;9.68;;;18.80;99.90;;;;;;4586664;19;20018;-34
2023/03/03 01:03:00;;;;;;;15.70;10.00;;;18.80;99.90;;;;;;4587206;19;20002;-34
2023/03/03 01:04:32;;;;;;;14.13;9.40;;;18.80;99.90;;;;;;4586891;19;20045;-40
2023/03/03 01:06:04;;;;;;;11.50;8.48;;;18.80;99.90;;;;;;4586935;19;20017;-34
2023/03/03 01:07:35;;;;;;;11.95;8.98;;;18.80;99.90;;;;;;4586911;19;20060;-34
2023/03/03 01:09:06;;;;;;;14.70;10.43;;;18.80;99.90;;;;;;4586704;19;20349;-39
2023/03/03 01:10:43;;;;;;;16.13;11.05;;;18.80;99.90;;;;;;4586915;19;20018;-34
2023/03/03 01:12:16;;;;;;;16.05;11.10;;;18.80;99.90;;;;;;4586558;19;20014;-44
2023/03/03 01:13:49;;;;;;;16.27;11.15;;;18.70;99.90;;;;;;4586222;19;20015;-34
2023/03/03 01:15:22;;;;;;;16.00;11.10;;;18.70;99.90;;;;;;4587061;19;20021;-35
2023/03/03 01:16:54;;;;;;;14.80;11.40;;;18.70;99.90;;;;;;4586739;19;20007;-36
2023/03/03 01:18:26;;;;;;;17.17;11.55;;;18.70;99.90;;;;;;4586660;19;20014;-34
2023/03/03 01:20:00;;;;;;;16.60;11.80;;;18.70;99.90;;;;;;4586823;19;20022;-34
2023/03/03 01:21:32;;;;;;;16.98;12.57;;;18.70;99.90;;;;;;4586748;19;20622;-41
2023/03/03 01:23:04;;;;;;;14.32;10.90;;;18.70;99.90;;;;;;4586694;19;20011;-33
2023/03/03 01:24:37;;;;;;;17.33;11.73;;;18.60;99.90;;;;;;4587352;19;20034;-37
2023/03/03 01:26:09;;;;;;;16.63;11.20;;;18.60;99.90;;;;;;4587437;19;20038;-41
2023/03/03 01:27:42;;;;;;;15.45;10.98;;;18.60;99.90;;;;;;4586944;19;20010;-34
2023/03/03 01:29:13;;;;;;;;;;;18.60;99.90;;;;;;4587285;19;20104;-41
2023/03/03 01:30:45;;;;;;;16.10;10.93;;;18.60;99.90;;;;;;4587893;19;19915;-34
2023/03/03 01:32:16;;;;;;;16.67;11.90;;;18.60;99.90;;;;;;4587869;19;20766;-44
2023/03/03 01:33:48;;;;;;;17.40;12.45;;;18.60;99.90;;;;;;4588380;19;20474;-35
2023/03/03 01:35:21;;;;;;;17.67;12.77;;;18.50;99.90;;;;;;4588463;19;20029;-34
2023/03/03 01:36:55;;;;;;;15.30;11.63;;;18.50;99.90;;;;;;4588496;19;20348;-34
2023/03/03 01:38:27;;;;;;;;;;;18.50;99.90;;;;;;4589451;19;20007;-34
2023/03/03 01:39:58;;;;;;;15.90;11.15;;;18.50;99.90;;;;;;4588409;19;19918;-36
2023/03/03 01:41:32;;;;;;;17.05;11.95;;;18.50;99.90;;;;;;4588481;19;20011;-34
2023/03/03 01:43:03;;;;;;;16.60;11.65;;;18.50;99.90;;;;;;4588305;19;20035;-34
2023/03/03 01:44:34;;;;;;;15.48;11.43;;;18.50;99.90;;;;;;4587292;19;20478;-32
2023/03/03 01:46:07;;;;;;;16.13;12.75;;;18.50;99.90;;;;;;4587956;19;20014;-38
2023/03/03 01:47:45;;;;;;;17.45;12.55;;;18.40;99.90;;;;;;4588201;19;20065;-36
2023/03/03 01:49:26;;;;;;;17.88;11.10;;;18.40;99.90;;;;;;4588273;19;20359;-37
2023/03/03 01:51:00;;;;;;;16.90;12.05;;;18.40;99.90;;;;;;4587558;19;20073;-33
2023/03/03 01:52:35;;;;;;;18.10;12.27;;;18.40;99.90;;;;;;4589180;19;20082;-36
2023/03/03 01:54:14;;;;;;;15.65;11.30;;;18.40;99.90;;;;;;4590872;19;20345;-39
2023/03/03 01:55:45;;;;;;;19.50;12.50;;;18.40;99.90;;;;;;4591944;19;20011;-39
2023/03/03 01:57:21;;;;;;;19.02;12.73;;;18.30;99.90;;;;;;4591560;19;20011;-36
2023/03/03 01:59:05;;;;;;;15.75;11.35;;;18.40;99.90;;;;;;4592900;19;20029;-42
2023/03/03 02:00:38;;;;;;;17.05;12.10;;;18.40;99.90;;;;;;4591685;19;20010;-43
2023/03/03 02:02:09;;;;;;;16.48;12.18;;;18.40;99.90;;;;;;4591632;19;20022;-33
2023/03/03 02:03:41;;;;;;;15.20;11.10;;;18.40;99.90;;;;;;4591695;19;20066;-37
2023/03/03 02:05:13;;;;;;;15.80;11.85;;;18.40;99.90;;;;;;4591825;19;20385;-36
2023/03/03 02:06:50;;;;;;;15.75;11.63;;;18.30;99.90;;;;;;4591281;19;20341;-40
2023/03/03 02:08:25;;;;;;;15.10;11.23;;;18.30;99.90;;;;;;4591290;19;20022;-34
2023/03/03 02:10:05;;;;;;;16.52;12.05;;;18.30;99.90;;;;;;4591597;19;20007;-35
2023/03/03 02:11:37;;;;;;;15.25;11.55;;;18.30;99.90;;;;;;4592874;19;20027;-36
2023/03/03 02:13:09;;;;;;;15.85;10.55;;;18.30;99.90;;;;;;4591223;19;20086;-33
2023/03/03 02:14:40;;;;;;;15.75;11.48;;;18.30;99.90;;;;;;4590298;19;20070;-35
2023/03/03 02:16:11;;;;;;;15.43;11.25;;;18.30;99.90;;;;;;4592284;19;20452;-34
2023/03/03 02:17:43;;;;;;;14.65;11.35;;;18.20;99.90;;;;;;4591195;19;20393;-38
2023/03/03 02:19:28;;;;;;;16.55;12.35;;;18.30;99.90;;;;;;4591186;19;20033;-38
2023/03/03 02:20:59;;;;;;;16.17;11.18;;;18.30;99.90;;;;;;4591129;19;20376;-34
2023/03/03 02:22:40;;;;;;;14.02;10.93;;;18.20;99.90;;;;;;4591075;19;20565;-34
2023/03/03 02:24:14;;;;;;;15.52;11.25;;;18.20;99.90;;;;;;4591148;19;20502;-37
2023/03/03 02:25:55;;;;;;;16.70;11.57;;;18.20;99.90;;;;;;4591785;19;20488;-33
2023/03/03 02:27:27;;;;;;;15.70;11.13;;;18.20;99.90;;;;;;4592255;19;20014;-40
2023/03/03 02:28:59;;;;;;;15.13;12.07;;;18.20;99.90;;;;;;4590846;19;20043;-39
2023/03/03 02:30:31;;;;;;;16.35;11.63;;;18.20;99.90;;;;;;4591461;19;20033;-43
2023/03/03 02:32:02;;;;;;;14.77;10.93;;;18.20;99.90;;;;;;4589038;19;20496;-38
2023/03/03 02:33:34;;;;;;;13.98;10.80;;;18.20;99.90;;;;;;4588614;19;20019;-34
2023/03/03 02:35:27;;;;;;;15.82;11.35;;;18.20;99.90;;;;;;4589907;19;20066;-42
2023/03/03 02:36:58;;;;;;;14.63;11.35;;;18.10;99.90;;;;;;4589894;19;20014;-37
2023/03/03 02:38:30;;;;;;;15.30;10.57;;;18.20;99.90;;;;;;4589673;19;20010;-36
2023/03/03 02:40:03;;;;;;;15.82;11.82;;;18.20;99.90;;;;;;4589594;19;20011;-34
2023/03/03 02:41:54;;;;;;;;;;;18.10;99.90;;;;;;4591058;19;20107;-40
2023/03/03 02:43:28;;;;;;;15.48;11.07;;;18.10;99.90;;;;;;4589876;19;19922;-32
2023/03/03 02:45:00;;;;;;;13.90;10.48;;;18.10;99.90;;;;;;4589724;19;20014;-34
2023/03/03 02:46:34;;;;;;;14.20;11.18;;;18.10;99.90;;;;;;4589658;19;20017;-35
2023/03/03 02:48:05;;;;;;;14.77;11.00;;;18.10;99.90;;;;;;4589560;19;20038;-38
2023/03/03 02:49:37;;;;;;;14.40;10.98;;;18.10;99.90;;;;;;4589699;19;20006;-39
2023/03/03 02:51:10;;;;;;;14.52;11.30;;;18.10;99.90;;;;;;4589761;19;20018;-34
2023/03/03 02:52:42;;;;;;;13.77;11.20;;;18.10;99.90;;;;;;4589436;19;20090;-34
2023/03/03 02:54:14;;;;;;;;;;;18.10;99.90;;;;;;4589453;19;20021;-36
2023/03/03 02:55:45;;;;;;;14.75;11.20;;;18.10;99.90;;;;;;4589533;19;19915;-34
2023/03/03 02:57:17;;;;;;;14.30;11.20;;;18.10;99.90;;;;;;4589379;19;20412;-34
2023/03/03 02:58:48;;;;;;;;;;;18.00;99.90;;;;;;4590145;19;20412;-37
2023/03/03 03:00:22;;;;;;;16.05;11.20;;;18.00;99.90;;;;;;4589215;19;19911;-36
2023/03/03 03:01:54;;;;;;;16.05;11.38;;;18.00;99.90;;;;;;4589286;19;20013;-33
2023/03/03 03:03:26;;;;;;;15.85;11.38;;;18.00;99.90;;;;;;4588870;19;20037;-38
2023/03/03 03:04:58;;;;;;;18.58;12.98;;;18.00;99.90;;;;;;4591094;19;20014;-39
2023/03/03 03:06:30;;;;;;;16.63;11.02;;;18.00;99.90;;;;;;4591488;19;20464;-34
2023/03/03 03:08:01;;;;;;;16.20;10.73;;;18.00;99.90;;;;;;4591365;19;20404;-38
2023/03/03 03:09:33;;;;;;;14.07;10.68;;;18.00;99.90;;;;;;4591354;19;20011;-33
2023/03/03 03:11:05;;;;;;;15.43;11.10;;;18.00;99.90;;;;;;4591290;19;20015;-39
2023/03/03 03:12:37;;;;;;;16.10;11.10;;;17.90;99.90;;;;;;4591455;19;20015;-34
2023/03/03 03:14:09;;;;;;;13.52;10.23;;;18.00;99.90;;;;;;4590030;19;20081;-36
2023/03/03 03:15:40;;;;;;;14.90;11.43;;;17.90;99.90;;;;;;4589965;19;20509;-40
2023/03/03 03:17:13;;;;;;;14.27;11.73;;;18.00;99.90;;;;;;4590693;19;20006;-34
2023/03/03 03:18:44;;;;;;;15.00;10.88;;;17.90;99.90;;;;;;4591327;19;20519;-34
2023/03/03 03:20:16;;;;;;;15.30;10.88;;;17.90;99.90;;;;;;4589963;19;20010;-39
2023/03/03 03:21:47;;;;;;;16.75;12.02;;;17.90;99.90;;;;;;4588571;19;20130;-33
2023/03/03 03:23:20;;;;;;;14.25;10.85;;;17.90;99.90;;;;;;4588584;19;20018;-38
2023/03/03 03:24:51;;;;;;;13.25;9.73;;;17.90;99.90;;;;;;4589084;19;20029;-34
2023/03/03 03:26:23;;;;;;;12.73;10.32;;;17.90;99.90;;;;;;4588887;19;20025;-33
2023/03/03 03:27:55;;;;;;;13.70;10.15;;;17.90;99.90;;;;;;4588721;19;20033;-39
2023/03/03 03:29:28;;;;;;;13.27;9.93;;;17.90;99.90;;;;;;4588685;19;20074;-34
2023/03/03 03:31:02;;;;;;;13.77;10.13;;;17.90;99.90;;;;;;4588698;19;20114;-35
2023/03/03 03:32:33;;;;;;;13.65;9.82;;;17.90;99.90;;;;;;4587900;19;20038;-36
2023/03/03 03:34:06;;;;;;;14.88;10.25;;;17.90;99.90;;;;;;4588088;19;20594;-38
2023/03/03 03:35:44;;;;;;;14.90;11.35;;;17.90;99.90;;;;;;4588837;19;20477;-37
2023/03/03 03:37:16;;;;;;;13.95;10.00;;;17.90;99.90;;;;;;4588486;19;20014;-33
2023/03/03 03:38:47;;;;;;;13.20;10.18;;;17.90;99.90;;;;;;4588712;19;20100;-33
2023/03/03 03:40:19;;;;;;;12.77;10.20;;;17.90;99.90;;;;;;4588485;19;20029;-41
2023/03/03 03:41:51;;;;;;;13.63;9.93;;;17.90;99.90;;;;;;4588747;19;20011;-37
2023/03/03 03:43:22;;;;;;;14.23;10.57;;;17.90;99.90;;;;;;4588971;19;20488;-37
2023/03/03 03:44:54;;;;;;;;;;;17.90;99.90;;;;;;4589373;19;20045;-37
2023/03/03 03:46:26;;;;;;;13.50;9.32;;;17.90;99.90;;;;;;4588539;19;19936;-35
2023/03/03 03:47:58;;;;;;;11.90;8.98;;;17.90;99.90;;;;;;4588517;19;20106;-34
2023/03/03 03:49:30;;;;;;;12.90;9.57;;;17.80;99.90;;;;;;4588673;19;20011;-37
2023/03/03 03:51:02;;;;;;;12.35;9.45;;;17.80;99.90;;;;;;4588413;19;20013;-35
2023/03/03 03:52:34;;;;;;;13.00;10.18;;;17.80;99.90;;;;;;4588224;19;20499;-35
2023/03/03 03:54:07;;;;;;;13.70;10.00;;;17.80;99.90;;;;;;4590229;19;20014;-31
2023/03/03 03:55:38;;;;;;;12.65;9.85;;;17.80;99.90;;;;;;4590762;19;20010;-34
2023/03/03 03:57:11;;;;;;;13.30;9.43;;;17.80;99.90;;;;;;4590039;19;20014;-36
2023/03/03 03:58:44;;;;;;;13.48;9.57;;;17.80;99.90;;;;;;4590221;19;20011;-37
2023/03/03 04:00:17;;;;;;;12.95;9.73;;;17.80;99.90;;;;;;4590360;19;20018;-35
2023/03/03 04:01:52;;;;;;;12.35;8.70;;;17.80;99.90;;;;;;4590728;19;20011;-34
2023/03/03 04:03:24;;;;;;;12.38;9.13;;;17.80;99.90;;;;;;4590296;19;20479;-33
2023/03/03 04:04:55;;;;;;;12.18;9.20;;;17.80;99.90;;;;;;4590058;19;20367;-37
2023/03/03 04:06:27;;;;;;;10.43;8.18;;;17.80;99.90;;;;;;4590249;19;20018;-36
2023/03/03 04:07:58;;;;;;;13.18;9.50;;;17.80;99.90;;;;;;4590169;19;20011;-41
2023/03/03 04:09:31;;;;;;;12.13;9.00;;;17.80;99.90;;;;;;4590083;19;20370;-35
2023/03/03 04:11:02;;;;;;;11.35;9.10;;;17.80;99.90;;;;;;4590165;19;20561;-34
2023/03/03 04:12:37;;;;;;;13.25;9.13;;;17.80;99.90;;;;;;4590533;19;20003;-39
2023/03/03 04:14:09;;;;;;;12.88;9.18;;;17.70;99.90;;;;;;4589829;19;20361;-36
2023/03/03 04:15:42;;;;;;;13.10;9.23;;;17.70;99.90;;;;;;4588467;19;20026;-41
2023/03/03 04:17:16;;;;;;;11.35;9.25;;;17.70;99.90;;;;;;4590106;19;20014;-34
2023/03/03 04:18:47;;;;;;;11.38;8.93;;;17.70;99.90;;;;;;4589976;19;20013;-40
2023/03/03 04:20:19;;;;;;;11.00;8.68;;;17.70;99.90;;;;;;4589926;19;20520;-42
2023/03/03 04:21:50;;;;;;;;;;;17.70;99.90;;;;;;4590566;19;20014;-35
2023/03/03 04:23:21;;;;;;;13.77;8.90;;;17.70;99.90;;;;;;4589763;19;19926;-42
2023/03/03 04:24:53;;;;;;;12.10;8.95;;;17.70;99.90;;;;;;4590121;19;20014;-39
2023/03/03 04:26:25;;;;;;;11.88;8.50;;;17.70;99.90;;;;;;4589634;19;20021;-40
2023/03/03 04:27:56;;;;;;;10.73;8.38;;;17.70;99.90;;;;;;4589851;19;20017;-36
2023/03/03 04:29:28;;;;;;;12.38;9.43;;;17.70;99.90;;;;;;4589727;19;20356;-34
2023/03/03 04:31:01;;;;;;;11.98;9.25;;;17.70;99.90;;;;;;4589629;19;20019;-39
2023/03/03 04:32:33;;;;;;;11.10;8.75;;;17.70;99.90;;;;;;4588644;19;20029;-34
2023/03/03 04:34:04;;;;;;;12.98;8.98;;;17.70;99.90;;;;;;4589185;19;20046;-40
2023/03/03 04:35:40;;;;;;;12.18;8.93;;;17.70;99.90;;;;;;4588465;19;20025;-33
2023/03/03 04:37:11;;;;;;;10.57;8.63;;;17.70;99.90;;;;;;4589681;19;20029;-38
2023/03/03 04:38:42;;;;;;;12.82;9.45;;;17.70;99.90;;;;;;4589576;19;20045;-34
2023/03/03 04:40:15;;;;;;;;;;;17.70;99.90;;;;;;4590380;19;20018;-39
2023/03/03 04:41:46;;;;;;;11.60;8.40;;;17.70;99.90;;;;;;4585698;19;19946;-34
2023/03/03 04:43:18;;;;;;;12.40;9.23;;;17.70;99.90;;;;;;4588817;19;20050;-35
2023/03/03 04:44:49;;;;;;;11.93;7.93;;;17.70;99.90;;;;;;4589752;19;20018;-39
2023/03/03 04:46:20;;;;;;;10.60;7.28;;;17.70;99.90;;;;;;4587861;19;20025;-31
2023/03/03 04:47:52;;;;;;;8.02;6.50;;;17.70;99.90;;;;;;4590807;19;20018;-32
2023/03/03 04:49:23;;;;;;;;;;;17.80;99.90;;;;;;4590182;19;20031;-30
2023/03/03 04:50:54;;;;;;;7.78;5.68;;;17.90;99.90;;;;;;4590346;19;19919;-33
2023/03/03 04:52:25;;;;;;;8.15;6.00;;;18.10;99.90;;;;;;4589477;19;20021;-40
2023/03/03 04:53:57;;;;;;;8.93;6.28;;;18.20;99.90;;;;;;4588035;19;20014;-35
2023/03/03 04:58:09;;;;;;;8.98;6.45;;;18.60;99.90;;;;;;4608449;19;20747;-39
2023/03/03 04:59:42;;;;;;;8.55;6.00;;;18.90;99.90;;;;;;4611680;19;20020;-34
2023/03/03 05:01:14;;;;;;;9.02;6.38;;;19.10;99.90;;;;;;4612134;19;20025;-37
2023/03/03 05:02:46;;;;;;;8.52;6.13;;;19.30;99.90;;;;;;4611801;19;20020;-30
2023/03/03 05:04:18;;;;;;;7.90;5.88;;;19.40;99.90;;;;;;4610368;19;20037;-33
2023/03/03 05:05:49;;;;;;;8.70;6.10;;;19.50;99.90;;;;;;4610531;19;20093;-40
2023/03/03 05:07:22;;;;;;;8.48;5.78;;;19.60;99.90;;;;;;4613067;19;20006;-33
2023/03/03 05:08:54;;;;;;;8.68;6.57;;;19.70;99.90;;;;;;4611530;19;20014;-30
2023/03/03 05:10:26;;;;;;;19.65;16.08;;;19.50;97.20;;;;;;4612101;19;20162;-33
2023/03/03 05:11:58;;;;;;;19.15;15.63;;;18.30;92.30;;;;;;4611335;19;20025;-32
2023/03/03 05:13:29;;;;;;;;;;;17.00;91.60;;;;;;4612282;19;20022;-36
2023/03/03 05:15:00;;;;;;;24.15;19.35;;;15.80;92.60;;;;;;4611908;19;19922;-35
2023/03/03 05:16:32;;;;;;;27.08;20.73;;;14.90;92.20;;;;;;4609777;19;20486;-32
2023/03/03 05:18:04;;;;;;;30.25;21.58;;;14.20;92.70;;;;;;4612092;19;20095;-32
2023/03/03 05:19:36;;;;;;;28.83;21.73;;;13.70;93.50;;;;;;4611338;19;20017;-33
2023/03/03 05:21:22;;;;;;;27.93;21.03;;;13.30;93.70;;;;;;4612010;19;20467;-32
2023/03/03 05:23:00;;;;;;;30.63;21.67;;;13.10;94.20;;;;;;4611941;19;20460;-34
2023/03/03 05:24:32;;;;;;;28.20;22.00;;;13.00;94.60;;;;;;4611673;19;20440;-32
2023/03/03 05:26:03;;;;;;;24.40;19.17;;;13.00;94.20;;;;;;4611065;19;20552;-34
2023/03/03 05:27:35;;;;;;;24.75;18.02;;;12.70;94.10;;;;;;4611384;19;20014;-31
2023/03/03 05:29:06;;;;;;;24.15;18.45;;;12.50;94.20;;;;;;4609036;19;20094;-35
2023/03/03 05:30:38;;;;;;;23.65;18.30;;;12.40;94.30;;;;;;4611161;19;20013;-31
2023/03/03 05:32:09;;;;;;;24.38;17.92;;;12.20;94.30;;;;;;4612079;19;20014;-31
2023/03/03 05:33:41;;;;;;;;;;;12.20;94.50;;;;;;4612789;19;20010;-32
2023/03/03 05:35:12;;;;;;;22.97;16.83;;;12.00;94.70;;;;;;4610631;19;19922;-33
2023/03/03 05:36:43;;;;;;;20.33;16.08;;;11.90;94.50;;;;;;4608676;19;20697;-33
2023/03/03 05:38:15;;;;;;;21.27;15.63;;;11.90;94.70;;;;;;4609819;19;20014;-33
2023/03/03 05:39:46;;;;;;;19.85;15.95;;;11.80;94.70;;;;;;4607637;19;20472;-30
2023/03/03 05:41:17;;;;;;;21.27;16.38;;;11.80;94.80;;;;;;4610061;19;20018;-32
2023/03/03 05:42:49;;;;;;;22.48;15.18;;;11.70;94.70;;;;;;4610238;19;20016;-33
2023/03/03 05:44:21;;;;;;;21.73;15.77;;;11.70;94.70;;;;;;4611230;19;20010;-36
2023/03/03 05:45:56;;;;;;;22.15;16.08;;;11.70;94.70;;;;;;4610637;19;21113;-27
2023/03/03 05:47:28;;;;;;;21.30;16.53;;;11.70;94.80;;;;;;4611830;19;20025;-32
2023/03/03 05:48:59;;;;;;;;;;;11.60;94.80;;;;;;4612582;19;20509;-35
2023/03/03 05:50:31;;;;;;;24.13;16.70;;;11.60;95.00;;;;;;4610613;19;19934;-37
2023/03/03 05:52:02;;;;;;;25.15;17.67;;;11.60;94.90;;;;;;4611730;19;20457;-36
2023/03/03 05:53:34;;;;;;;25.73;18.57;;;11.60;94.90;;;;;;4609574;19;20014;-36
2023/03/03 05:55:06;;;;;;;28.33;21.10;;;11.70;95.10;;;;;;4611282;19;21041;-31
2023/03/03 05:56:38;;;;;;;46.43;36.83;;;11.60;94.90;;;;;;4608239;19;20467;-35
2023/03/03 05:58:10;;;;;;;42.20;31.85;;;11.60;94.90;;;;;;4610311;19;20472;-32
2023/03/03 05:59:43;;;;;;;29.17;20.53;;;11.60;94.80;;;;;;4608398;19;20459;-28
2023/03/03 06:01:15;;;;;;;29.13;19.58;;;11.60;94.80;;;;;;4608953;19;21034;-34
2023/03/03 06:02:46;;;;;;;27.33;19.77;;;11.70;94.80;;;;;;4610740;19;20474;-33
2023/03/03 06:04:17;;;;;;;34.70;21.90;;;11.60;94.80;;;;;;4610346;19;20014;-28
2023/03/03 06:05:49;;;;;;;26.90;19.95;;;11.60;94.70;;;;;;4611196;19;20025;-29
2023/03/03 06:07:20;;;;;;;27.85;20.25;;;11.60;94.70;;;;;;4608343;19;20022;-38
2023/03/03 06:08:53;;;;;;;27.90;18.73;;;11.60;94.70;;;;;;4592875;19;20011;-29
2023/03/03 06:10:24;;;;;;;25.42;18.13;;;11.50;94.70;;;;;;4592560;19;20465;-35
2023/03/03 06:11:56;;;;;;;23.67;17.00;;;11.60;94.80;;;;;;4592444;19;20094;-34
2023/03/03 06:13:27;;;;;;;23.33;17.58;;;11.50;94.60;;;;;;4591958;19;20039;-31
2023/03/03 06:14:59;;;;;;;24.87;17.73;;;11.50;94.70;;;;;;4591989;19;20488;-32
2023/03/03 06:16:30;;;;;;;26.75;18.42;;;11.50;94.70;;;;;;4591387;19;20453;-35
2023/03/03 06:18:02;;;;;;;30.87;20.17;;;11.50;94.80;;;;;;4592979;19;20011;-32
2023/03/03 06:19:33;;;;;;;32.72;21.45;;;11.50;94.60;;;;;;4593188;19;20473;-32
2023/03/03 06:21:05;;;;;;;30.73;20.90;;;11.50;94.70;;;;;;4591672;19;20483;-32
2023/03/03 06:22:36;;;;;;;28.52;20.25;;;11.50;94.70;;;;;;4593287;19;20021;-28
2023/03/03 06:24:08;;;;;;;27.55;19.90;;;11.50;94.70;;;;;;4592345;19;20015;-33
2023/03/03 06:25:39;;;;;;;32.72;22.20;;;11.50;94.90;;;;;;4592808;19;20021;-30
2023/03/03 06:27:10;;;;;;;32.17;21.92;;;11.50;94.90;;;;;;4590458;19;20022;-29
2023/03/03 06:28:42;;;;;;;34.75;25.13;;;11.50;94.90;;;;;;4592800;19;20049;-28
2023/03/03 06:30:13;;;;;;;32.38;23.75;;;11.50;94.90;;;;;;4592578;19;20033;-31
2023/03/03 06:31:44;;;;;;;30.52;22.60;;;11.40;94.80;;;;;;4592183;19;20010;-31
2023/03/03 06:33:16;;;;;;;31.08;22.65;;;11.40;94.90;;;;;;4591296;19;20057;-35
2023/03/03 06:34:47;;;;;;;57.95;37.65;;;11.40;94.90;;;;;;4591505;19;20412;-30
2023/03/03 06:36:19;;;;;;;73.03;47.47;;;11.40;95.00;;;;;;4590290;19;20017;-36
2023/03/03 06:37:51;;;;;;;53.77;36.17;;;11.40;95.00;;;;;;4591376;19;20014;-31
2023/03/03 06:39:24;;;;;;;59.13;41.67;;;11.40;95.00;;;;;;4590163;19;20437;-33
2023/03/03 06:41:01;;;;;;;64.90;45.33;;;11.40;95.00;;;;;;4592072;19;20448;-33
2023/03/03 06:42:32;;;;;;;42.33;29.97;;;11.60;95.40;;;;;;4591007;19;20517;-37
2023/03/03 06:44:04;;;;;;;43.37;33.30;;;11.70;94.90;;;;;;4591431;19;21103;-31
2023/03/03 06:45:35;;;;;;;35.50;27.20;;;11.80;94.80;;;;;;4591476;19;20469;-32
2023/03/03 06:47:08;;;;;;;33.00;22.07;;;11.70;94.70;;;;;;4591029;19;20019;-31
2023/03/03 06:48:39;;;;;;;28.13;22.20;;;11.60;94.80;;;;;;4590677;19;20490;-31
2023/03/03 06:50:11;;;;;;;31.67;24.07;;;11.50;94.80;;;;;;4591105;19;20018;-33
2023/03/03 06:51:45;;;;;;;26.35;18.85;;;11.40;94.70;;;;;;4590275;19;20547;-30
2023/03/03 06:53:17;;;;;;;24.97;19.33;;;11.30;94.90;;;;;;4590285;19;20482;-31
2023/03/03 06:54:49;;;;;;;28.73;22.50;;;11.20;94.90;;;;;;4592539;19;20468;-33
2023/03/03 06:56:23;;;;;;;30.03;22.97;;;11.20;94.90;;;;;;4590557;19;20480;-32
2023/03/03 06:57:55;;;;;;;32.60;25.83;;;11.20;94.90;;;;;;4588072;19;20855;-33
2023/03/03 06:59:26;;;;;;;38.72;29.58;;;11.20;95.00;;;;;;4591930;19;20493;-31
2023/03/03 07:00:58;;;;;;;34.75;24.45;;;11.20;95.10;;;;;;4588607;19;20031;-31
2023/03/03 07:02:31;;;;;;;25.53;19.47;;;11.20;95.10;;;;;;4590713;19;20085;-33
2023/03/03 07:04:24;;;;;;;25.48;18.95;;;11.10;95.00;;;;;;4592483;19;20481;-33
2023/03/03 07:05:56;;;;;;;25.73;20.17;;;11.10;95.00;;;;;;4591431;19;20024;-31
2023/03/03 07:07:29;;;;;;;22.77;17.97;;;11.10;95.10;;;;;;4590832;19;20511;-31
2023/03/03 07:09:00;;;;;;;34.20;23.52;;;11.10;95.10;;;;;;4590494;19;21126;-31
2023/03/03 07:10:32;;;;;;;29.38;22.15;;;11.10;95.10;;;;;;4590619;19;20027;-32
2023/03/03 07:12:10;;;;;;;33.47;22.07;;;11.10;95.10;;;;;;4591351;19;20022;-31
2023/03/03 07:13:45;;;;;;;26.50;19.53;;;11.10;95.20;;;;;;4589683;19;20485;-31
2023/03/03 07:15:22;;;;;;;29.80;20.67;;;11.10;95.20;;;;;;4588266;19;20553;-32
2023/03/03 07:17:03;;;;;;;41.77;26.67;;;11.10;95.20;;;;;;4587838;19;21207;-34
2023/03/03 07:18:46;;;;;;;30.40;20.47;;;11.10;95.30;;;;;;4588568;19;21161;-31
2023/03/03 07:20:22;;;;;;;24.17;16.27;;;11.00;95.10;;;;;;4585700;19;20417;-34
2023/03/03 07:21:53;;;;;;;36.87;24.87;;;11.10;95.70;;;;;;4589504;19;21052;-30
2023/03/03 07:23:26;;;;;;;32.67;23.35;;;11.20;95.40;;;;;;4588374;19;20803;-33
2023/03/03 07:25:01;;;;;;;43.73;28.63;;;11.20;95.30;;;;;;4589903;19;20044;-29
2023/03/03 07:26:33;;;;;;;36.03;25.33;;;11.30;95.20;;;;;;4589451;19;20864;-31
2023/03/03 07:28:13;;;;;;;28.88;20.85;;;11.40;95.10;;;;;;4589576;19;20468;-31
2023/03/03 07:29:48;;;;;;;22.33;17.03;;;11.40;95.00;;;;;;4588993;19;20050;-32
2023/03/03 07:31:38;;;;;;;21.80;16.60;;;11.40;94.90;;;;;;4589500;19;20441;-31
2023/03/03 07:33:23;;;;;;;20.40;14.53;;;11.40;95.00;;;;;;4589489;19;20580;-31
2023/03/03 07:34:55;;;;;;;20.60;15.43;;;11.40;95.00;;;;;;4589041;19;20628;-32
2023/03/03 07:36:33;;;;;;;19.10;13.90;;;11.30;94.70;;;;;;4588283;19;20489;-30
2023/03/03 07:38:16;;;;;;;19.27;14.47;;;11.30;94.80;;;;;;4588862;19;20014;-31
2023/03/03 07:39:47;;;;;;;22.17;15.33;;;11.30;95.00;;;;;;4588659;19;20857;-34
2023/03/03 07:41:22;;;;;;;21.30;14.03;;;11.40;94.90;;;;;;4587848;19;20502;-32
2023/03/03 07:42:53;;;;;;;23.10;16.33;;;11.40;94.90;;;;;;4589201;19;20640;-35
2023/03/03 07:44:34;;;;;;;;;;;11.40;94.80;;;;;;4589188;19;20858;-30
2023/03/03 07:46:26;;;;;;;22.57;16.70;;;11.40;94.80;;;;;;4590191;19;19923;-32
2023/03/03 07:48:28;;;;;;;21.40;16.17;;;11.30;95.00;;;;;;4591692;19;20433;-31
2023/03/03 07:50:07;;;;;;;22.37;15.77;;;11.20;95.00;;;;;;4587768;19;20469;-33
2023/03/03 07:51:40;;;;;;;23.83;16.67;;;11.20;95.00;;;;;;4588474;19;20468;-31
2023/03/03 07:53:24;;;;;;;22.30;16.10;;;11.10;95.00;;;;;;4588629;19;20827;-32
2023/03/03 07:54:58;;;;;;;18.40;13.47;;;11.00;95.00;;;;;;4588494;19;20588;-32
2023/03/03 07:56:33;;;;;;;22.37;16.40;;;10.90;95.10;;;;;;4586060;19;21269;-31
2023/03/03 07:58:15;;;;;;;20.17;15.57;;;10.90;95.20;;;;;;4589155;19;20491;-31
2023/03/03 07:59:48;;;;;;;19.13;13.97;;;10.90;95.20;;;;;;4588575;19;20859;-32
2023/03/03 08:01:29;;;;;;;20.47;14.40;;;10.90;95.20;;;;;;4590423;19;20453;-32
2023/03/03 08:03:09;;;;;;;26.27;18.80;;;11.00;95.30;;;;;;4587993;19;20449;-31